Terminal Aerodrome Forecast
Issued by NWS

Home | Current Version | Previous Version | Text Only | Print | Product List | Glossary On
Versions: 1 2 3 4 5 6 7 8 9 10 11
020
FTUS45 KRIW 242338
TAFWRL
TAF
KWRL 242338Z 2500/2524 34012G18KT P6SM SCT060 BKN090
     FM250700 33011KT 6SM -SHRA SCT015 OVC025
     FM251500 34015G25KT P6SM VCSH SCT025 BKN040
     FM252100 34012G20KT P6SM SCT050 BKN090=

USA.gov is the U.S. government's official web portal to all federal, state and local government web resources and services.